Time;durP1;ratioP1;P1;durP2;ratioP2;P2;SDS_P1;SDS_P2;PMS_P1;PMS_P2;Temp;Humidity;BMP_temperature;BMP_pressure;BME280_temperature;BME280_humidity;BME280_pressure;Samples;Min_cycle;Max_cycle;Signal;HPM_P1;HPM_P2
2022/05/31 00:01:37;;;;;;;0.80;0.50;;;13.70;1.00;;;;;;5115342;28;20433;-64
2022/05/31 00:04:06;;;;;;;0.60;0.40;;;13.70;1.00;;;;;;5115293;28;20448;-65
2022/05/31 00:06:33;;;;;;;0.50;0.40;;;13.60;1.00;;;;;;5114404;28;20732;-64
2022/05/31 00:09:00;;;;;;;1.20;0.50;;;13.60;1.00;;;;;;5114793;28;20532;-64
2022/05/31 00:11:27;;;;;;;0.70;0.40;;;13.60;1.00;;;;;;5113937;28;20455;-65
2022/05/31 00:13:54;;;;;;;0.80;0.47;;;13.70;1.00;;;;;;5115151;28;20472;-64
2022/05/31 00:16:21;;;;;;;0.87;0.50;;;13.70;1.00;;;;;;5117173;28;20485;-64
2022/05/31 00:18:48;;;;;;;0.60;0.40;;;13.70;1.00;;;;;;5116952;28;20444;-64
2022/05/31 00:21:16;;;;;;;2.90;0.50;;;13.80;1.00;;;;;;5116788;28;20567;-64
2022/05/31 00:23:44;;;;;;;0.60;0.40;;;13.90;1.00;;;;;;5116837;28;20547;-64
2022/05/31 00:26:11;;;;;;;0.60;0.30;;;13.90;1.00;;;;;;5117546;28;20548;-64
2022/05/31 00:28:38;;;;;;;0.70;0.43;;;14.00;1.00;;;;;;5116629;28;20703;-64
2022/05/31 00:31:07;;;;;;;0.67;0.47;;;14.00;1.00;;;;;;5117303;28;20452;-64
2022/05/31 00:33:34;;;;;;;0.60;0.40;;;13.90;1.00;;;;;;5117783;28;20449;-65
2022/05/31 00:36:02;;;;;;;0.70;0.50;;;13.90;1.00;;;;;;5116962;28;20509;-64
2022/05/31 00:38:30;;;;;;;1.03;0.50;;;13.80;1.00;;;;;;5117341;28;20445;-65
2022/05/31 00:41:23;;;;;;;0.80;0.50;;;13.80;1.00;;;;;;5117169;28;20548;-64
2022/05/31 00:43:44;;;;;;;0.50;0.40;;;13.70;1.00;;;;;;5116417;28;20740;-64
2022/05/31 00:46:11;;;;;;;0.80;0.50;;;13.60;1.00;;;;;;5115997;28;20562;-64
2022/05/31 00:48:43;;;;;;;0.70;0.40;;;13.40;1.00;;;;;;5116280;28;20531;-64
2022/05/31 00:51:13;;;;;;;0.90;0.60;;;13.30;1.00;;;;;;5114799;28;20831;-64
2022/05/31 00:53:46;;;;;;;0.63;0.40;;;13.20;1.00;;;;;;5114955;28;20452;-64
2022/05/31 00:56:17;;;;;;;0.60;0.40;;;13.10;1.00;;;;;;5116327;28;20483;-64
2022/05/31 00:58:53;;;;;;;0.90;0.40;;;13.00;1.00;;;;;;5116290;28;20868;-64
2022/05/31 01:01:20;;;;;;;0.80;0.50;;;12.90;1.00;;;;;;5116487;28;20510;-64
2022/05/31 01:03:48;;;;;;;1.10;0.57;;;12.70;1.00;;;;;;5116721;28;20468;-64
2022/05/31 01:06:15;;;;;;;1.23;0.40;;;12.60;1.00;;;;;;5116380;28;20503;-64
2022/05/31 01:08:45;;;;;;;0.60;0.40;;;12.60;1.00;;;;;;5116371;28;20947;-64
2022/05/31 01:11:14;;;;;;;0.83;0.60;;;12.60;1.00;;;;;;5116264;28;20560;-65
2022/05/31 01:13:42;;;;;;;0.80;0.50;;;12.50;1.00;;;;;;5116200;28;20475;-64
2022/05/31 01:16:11;;;;;;;1.17;0.63;;;12.60;1.00;;;;;;5116071;28;20517;-64
2022/05/31 01:18:39;;;;;;;0.70;0.40;;;12.60;1.00;;;;;;5114999;28;20512;-64
2022/05/31 01:21:08;;;;;;;0.70;0.50;;;12.60;1.00;;;;;;5116490;28;20827;-63
2022/05/31 01:23:41;;;;;;;0.90;0.43;;;12.60;1.00;;;;;;5116023;28;20444;-64
2022/05/31 01:26:16;;;;;;;0.70;0.50;;;12.60;1.00;;;;;;5113737;28;20891;-64
2022/05/31 01:29:00;;;;;;;1.20;0.40;;;12.50;1.00;;;;;;5112480;28;20747;-64
2022/05/31 01:31:31;;;;;;;0.80;0.50;;;12.40;1.00;;;;;;5112270;28;20902;-64
2022/05/31 01:34:03;;;;;;;1.33;0.47;;;12.50;1.00;;;;;;5112186;28;20943;-64
2022/05/31 01:36:37;;;;;;;0.70;0.50;;;12.30;1.00;;;;;;5113210;28;20699;-64
2022/05/31 01:39:06;;;;;;;0.70;0.40;;;12.30;1.00;;;;;;5113847;28;20488;-64
2022/05/31 01:41:39;;;;;;;1.10;0.50;;;12.30;1.00;;;;;;5115264;28;20541;-64
2022/05/31 01:44:09;;;;;;;0.80;0.50;;;12.10;1.00;;;;;;5116555;28;20555;-64
2022/05/31 01:46:36;;;;;;;1.10;0.50;;;12.00;1.00;;;;;;5116607;28;20452;-64
2022/05/31 01:49:07;;;;;;;0.90;0.50;;;12.00;1.00;;;;;;5116814;28;20512;-64
2022/05/31 01:51:37;;;;;;;0.77;0.40;;;12.00;1.00;;;;;;5117361;28;20894;-64
2022/05/31 01:54:04;;;;;;;1.00;0.50;;;12.10;1.00;;;;;;5116457;28;20535;-64
2022/05/31 01:56:32;;;;;;;1.87;0.50;;;12.10;1.00;;;;;;5114496;28;20568;-64
2022/05/31 01:59:00;;;;;;;1.10;0.50;;;12.20;1.00;;;;;;5115913;28;20540;-64
2022/05/31 02:01:28;;;;;;;0.70;0.50;;;12.30;1.00;;;;;;5114786;28;20729;-64
2022/05/31 02:03:55;;;;;;;0.50;0.40;;;12.30;1.00;;;;;;5113970;28;20449;-65
2022/05/31 02:06:27;;;;;;;1.00;0.40;;;12.40;1.00;;;;;;5114478;28;20539;-64
2022/05/31 02:08:56;;;;;;;2.60;0.40;;;12.40;1.00;;;;;;5115812;28;20908;-64
2022/05/31 02:11:23;;;;;;;1.33;0.40;;;12.50;1.00;;;;;;5116834;28;20547;-64
2022/05/31 02:13:51;;;;;;;1.43;0.50;;;12.50;1.00;;;;;;5116525;28;20449;-64
2022/05/31 02:16:18;;;;;;;0.73;0.43;;;12.40;1.00;;;;;;5116692;28;20459;-63
2022/05/31 02:21:35;;;;;;;1.40;0.43;;;12.20;1.00;;;;;;5115849;28;20416;-64
2022/05/31 02:24:05;;;;;;;0.80;0.50;;;12.10;1.00;;;;;;5116420;28;20903;-64
2022/05/31 02:26:32;;;;;;;0.80;0.50;;;12.20;1.00;;;;;;5116602;28;20809;-64
2022/05/31 02:28:59;;;;;;;0.60;0.40;;;12.20;1.00;;;;;;5116824;28;20472;-64
2022/05/31 02:31:26;;;;;;;0.80;0.50;;;12.20;1.00;;;;;;5116388;28;20822;-64
2022/05/31 02:33:53;;;;;;;2.73;0.60;;;12.20;1.00;;;;;;5116300;28;20449;-64
2022/05/31 02:36:20;;;;;;;0.77;0.40;;;12.20;1.00;;;;;;5116725;28;20535;-63
2022/05/31 02:38:47;;;;;;;1.23;0.50;;;12.20;1.00;;;;;;5116447;28;20575;-63
2022/05/31 02:41:16;;;;;;;1.93;0.40;;;12.10;1.00;;;;;;5116284;28;20452;-63
2022/05/31 02:43:42;;;;;;;1.43;0.50;;;12.10;1.00;;;;;;5116528;28;20441;-63
2022/05/31 02:46:09;;;;;;;0.90;0.50;;;12.10;1.00;;;;;;5116701;28;20535;-63
2022/05/31 02:48:36;;;;;;;0.80;0.50;;;12.00;1.00;;;;;;5116305;28;20480;-63
2022/05/31 02:51:03;;;;;;;1.27;0.50;;;11.90;1.00;;;;;;5115325;28;20496;-63
2022/05/31 02:53:30;;;;;;;0.70;0.40;;;11.80;1.00;;;;;;5116031;28;20487;-63
2022/05/31 02:55:57;;;;;;;0.60;0.47;;;11.80;1.00;;;;;;5116153;28;20584;-62
2022/05/31 02:58:26;;;;;;;1.10;0.50;;;11.90;1.00;;;;;;5115948;28;20526;-63
2022/05/31 03:00:53;;;;;;;1.03;0.53;;;11.80;1.00;;;;;;5120126;28;20487;-63
2022/05/31 03:03:20;;;;;;;2.70;0.60;;;11.70;59.20;;;;;;5120473;28;20487;-63
2022/05/31 03:05:47;;;;;;;0.90;0.50;;;11.40;99.90;;;;;;5119879;28;20556;-62
2022/05/31 03:08:14;;;;;;;1.00;0.50;;;11.50;99.90;;;;;;5119034;28;20935;-63
2022/05/31 03:10:45;;;;;;;0.80;0.50;;;11.30;99.90;;;;;;5118591;28;20547;-63
2022/05/31 03:13:14;;;;;;;0.80;0.50;;;11.20;99.90;;;;;;5117571;28;20535;-64
2022/05/31 03:15:43;;;;;;;1.30;0.50;;;11.00;99.90;;;;;;5118079;28;20547;-63
2022/05/31 03:18:13;;;;;;;0.93;0.50;;;11.00;1.00;;;;;;5117932;28;20484;-63
2022/05/31 03:20:43;;;;;;;0.80;0.50;;;11.00;1.00;;;;;;5118593;28;20456;-62
2022/05/31 03:23:15;;;;;;;1.00;0.60;;;11.10;1.00;;;;;;5119010;28;20517;-63
2022/05/31 03:25:43;;;;;;;1.10;0.60;;;11.10;99.90;;;;;;5119502;28;20547;-63
2022/05/31 03:28:11;;;;;;;0.60;0.40;;;11.20;1.00;;;;;;5119865;28;20547;-63
2022/05/31 03:30:38;;;;;;;2.30;0.50;;;11.40;99.90;;;;;;5119542;28;20535;-63
2022/05/31 03:33:09;;;;;;;1.40;0.70;;;11.50;99.90;;;;;;5118587;28;20739;-63
2022/05/31 03:35:36;;;;;;;0.90;0.50;;;11.50;99.90;;;;;;5118736;28;20823;-64
2022/05/31 03:38:03;;;;;;;1.70;0.60;;;11.40;99.90;;;;;;5118745;28;20956;-63
2022/05/31 03:43:15;;;;;;;0.77;0.50;;;11.50;99.90;;;;;;5118851;28;20439;-63
2022/05/31 03:45:44;;;;;;;0.83;0.67;;;11.60;99.90;;;;;;5117634;28;20817;-63
2022/05/31 03:48:13;;;;;;;0.60;0.50;;;11.60;99.90;;;;;;5118234;28;20451;-63
2022/05/31 03:50:41;;;;;;;0.90;0.53;;;11.60;99.90;;;;;;5119148;28;20547;-63
2022/05/31 03:53:09;;;;;;;1.73;0.50;;;11.70;99.90;;;;;;5118612;28;20437;-62
2022/05/31 03:55:38;;;;;;;1.00;0.40;;;11.80;99.90;;;;;;5117885;28;20476;-63
2022/05/31 03:58:05;;;;;;;0.70;0.43;;;11.90;99.90;;;;;;5117977;28;20487;-63
2022/05/31 04:00:32;;;;;;;0.67;0.40;;;12.00;54.80;;;;;;5117375;28;20830;-63
2022/05/31 04:02:59;;;;;;;1.00;0.60;;;12.10;20.90;;;;;;5116386;28;20472;-63
2022/05/31 04:05:28;;;;;;;1.13;0.60;;;12.00;1.00;;;;;;5118419;28;20536;-63
2022/05/31 04:07:56;;;;;;;0.70;0.50;;;11.80;2.50;;;;;;5116491;28;20561;-62
2022/05/31 04:10:23;;;;;;;2.07;0.50;;;11.70;54.00;;;;;;5114266;28;20776;-62
2022/05/31 04:12:50;;;;;;;0.80;0.50;;;11.80;90.10;;;;;;5116234;28;20518;-63
2022/05/31 04:15:17;;;;;;;1.50;0.60;;;11.80;71.90;;;;;;5117079;28;20531;-62
2022/05/31 04:17:44;;;;;;;0.90;0.60;;;11.80;47.00;;;;;;5116995;28;20560;-64
2022/05/31 04:20:12;;;;;;;0.70;0.40;;;11.90;37.10;;;;;;5116568;28;20983;-64
2022/05/31 04:22:40;;;;;;;0.70;0.50;;;12.00;46.00;;;;;;5116592;28;20509;-64
2022/05/31 04:25:07;;;;;;;0.63;0.43;;;11.90;9.80;;;;;;5117590;28;20488;-64
2022/05/31 04:27:34;;;;;;;1.27;0.40;;;11.90;1.00;;;;;;5116815;28;20451;-64
2022/05/31 04:30:01;;;;;;;1.17;0.50;;;11.90;35.50;;;;;;5116622;28;20555;-64
2022/05/31 04:32:28;;;;;;;0.93;0.50;;;11.80;9.20;;;;;;5117425;28;20488;-64
2022/05/31 04:34:55;;;;;;;0.70;0.50;;;11.70;19.70;;;;;;5118074;28;20835;-64
2022/05/31 04:37:22;;;;;;;0.70;0.50;;;11.60;53.90;;;;;;5116795;28;20451;-64
2022/05/31 04:39:51;;;;;;;1.30;0.60;;;11.60;75.10;;;;;;5116384;28;20459;-64
2022/05/31 04:42:18;;;;;;;1.00;0.43;;;11.70;97.20;;;;;;5115566;28;20445;-63
2022/05/31 04:44:45;;;;;;;0.97;0.60;;;11.80;96.30;;;;;;5115482;28;20929;-64
2022/05/31 04:47:12;;;;;;;1.00;0.70;;;12.00;66.80;;;;;;5116188;28;20540;-63
2022/05/31 04:49:38;;;;;;;0.83;0.60;;;11.80;33.70;;;;;;5114933;28;20441;-64
2022/05/31 04:52:06;;;;;;;1.20;0.60;;;11.70;56.60;;;;;;5114807;28;20528;-61
2022/05/31 04:54:33;;;;;;;1.90;0.50;;;11.70;97.00;;;;;;5114986;28;20555;-64
2022/05/31 04:57:01;;;;;;;0.83;0.60;;;11.60;99.90;;;;;;5116388;28;20543;-63
2022/05/31 04:59:28;;;;;;;0.77;0.60;;;11.60;99.90;;;;;;5116385;28;20485;-63
2022/05/31 05:01:55;;;;;;;0.80;0.50;;;11.70;99.90;;;;;;5116100;28;20715;-64
2022/05/31 05:04:22;;;;;;;1.00;0.50;;;11.80;99.90;;;;;;5114389;28;20535;-62
2022/05/31 05:06:49;;;;;;;0.90;0.60;;;11.90;99.90;;;;;;5115089;28;20822;-62
2022/05/31 05:09:17;;;;;;;1.50;0.60;;;12.10;99.90;;;;;;5114520;28;20517;-62
2022/05/31 05:11:46;;;;;;;1.10;0.50;;;12.20;31.10;;;;;;5115451;28;20868;-63
2022/05/31 05:14:14;;;;;;;0.80;0.50;;;12.10;1.00;;;;;;5116248;28;20478;-64
2022/05/31 05:16:41;;;;;;;0.70;0.50;;;12.10;1.00;;;;;;5115718;28;20527;-62
2022/05/31 05:19:08;;;;;;;1.23;0.70;;;12.20;17.00;;;;;;5115145;28;20484;-63
2022/05/31 05:21:35;;;;;;;0.90;0.60;;;12.20;1.00;;;;;;5113950;28;20451;-63
2022/05/31 05:24:02;;;;;;;0.80;0.63;;;12.10;14.30;;;;;;5115268;28;20488;-63
2022/05/31 05:26:28;;;;;;;1.77;0.80;;;12.10;15.90;;;;;;5113547;28;20559;-62
2022/05/31 05:31:42;;;;;;;1.10;0.60;;;12.00;28.60;;;;;;5112746;28;20502;-63
2022/05/31 05:34:09;;;;;;;1.17;0.60;;;11.90;41.90;;;;;;5114134;28;20884;-63
2022/05/31 05:36:36;;;;;;;1.13;0.50;;;12.00;41.20;;;;;;5113680;28;20539;-62
2022/05/31 05:39:04;;;;;;;1.07;0.60;;;12.00;52.60;;;;;;5114518;28;20583;-61
2022/05/31 05:41:32;;;;;;;1.10;0.60;;;12.00;15.50;;;;;;5111458;28;20445;-62
2022/05/31 05:43:59;;;;;;;2.00;0.70;;;12.10;1.10;;;;;;5112357;28;20978;-62
2022/05/31 05:46:28;;;;;;;0.80;0.53;;;12.20;1.00;;;;;;5114534;28;20576;-62
2022/05/31 05:48:57;;;;;;;0.60;0.50;;;12.40;1.00;;;;;;5111157;28;20793;-62
2022/05/31 05:51:28;;;;;;;0.70;0.50;;;12.60;1.00;;;;;;5112152;28;20952;-62
2022/05/31 05:53:56;;;;;;;1.53;0.63;;;12.80;1.00;;;;;;5109285;28;20484;-62
2022/05/31 05:56:24;;;;;;;0.90;0.50;;;12.90;1.00;;;;;;5109323;28;20599;-62
2022/05/31 05:58:51;;;;;;;1.00;0.60;;;13.00;1.00;;;;;;5109735;28;20497;-63
2022/05/31 06:01:23;;;;;;;0.90;0.60;;;13.20;1.00;;;;;;5111543;28;20510;-62
2022/05/31 06:03:53;;;;;;;1.30;0.70;;;13.30;1.00;;;;;;5113449;28;20479;-63
2022/05/31 06:06:24;;;;;;;1.13;0.63;;;13.40;1.00;;;;;;5113222;28;20657;-62
2022/05/31 06:08:56;;;;;;;1.53;0.60;;;13.50;1.00;;;;;;5096835;28;20531;-62
2022/05/31 06:11:26;;;;;;;0.70;0.60;;;13.70;1.00;;;;;;5111309;28;20792;-62
2022/05/31 06:13:58;;;;;;;1.30;0.60;;;13.80;1.00;;;;;;5117246;28;20447;-62
2022/05/31 06:16:31;;;;;;;1.10;0.50;;;13.90;1.00;;;;;;5111239;28;20459;-62
2022/05/31 06:19:02;;;;;;;1.13;0.80;;;14.00;1.00;;;;;;5112036;28;20567;-62
2022/05/31 06:21:31;;;;;;;1.40;0.60;;;14.20;1.00;;;;;;5110201;28;20808;-62
2022/05/31 06:24:00;;;;;;;1.47;0.60;;;14.40;1.00;;;;;;5124444;28;20531;-63
2022/05/31 06:26:28;;;;;;;0.70;0.50;;;14.50;1.00;;;;;;5113550;28;20453;-63
2022/05/31 06:28:55;;;;;;;0.90;0.53;;;14.60;1.00;;;;;;5114047;28;20444;-63
2022/05/31 06:31:22;;;;;;;0.80;0.70;;;14.60;1.00;;;;;;5120291;28;20498;-63
2022/05/31 06:33:49;;;;;;;1.43;0.60;;;14.50;1.00;;;;;;5114742;28;20432;-62
2022/05/31 06:36:16;;;;;;;1.00;0.60;;;14.50;1.00;;;;;;5127500;27;20456;-62
2022/05/31 06:38:45;;;;;;;0.80;0.50;;;14.60;1.00;;;;;;5118212;27;20508;-62
2022/05/31 06:41:12;;;;;;;0.98;0.60;;;14.60;1.00;;;;;;5117177;27;20511;-61
2022/05/31 06:43:39;;;;;;;0.60;0.50;;;14.70;1.00;;;;;;5125244;27;20208;-63
2022/05/31 06:46:06;;;;;;;0.90;0.60;;;14.90;1.00;;;;;;5133220;27;20551;-63
2022/05/31 06:48:33;;;;;;;0.70;0.50;;;15.20;1.00;;;;;;5121567;27;21135;-63
2022/05/31 06:51:04;;;;;;;0.77;0.47;;;15.30;1.00;;;;;;5117313;27;20865;-62
2022/05/31 06:58:58;;;;;;;0.80;0.50;;;15.30;1.00;;;;;;5134105;27;20660;-63
2022/05/31 07:01:31;;;;;;;1.33;0.50;;;15.50;1.00;;;;;;5134060;27;20447;-62
2022/05/31 07:03:59;;;;;;;0.90;0.60;;;15.40;1.00;;;;;;5125417;27;20539;-62
2022/05/31 07:06:26;;;;;;;0.80;0.57;;;15.40;1.00;;;;;;5128642;27;20462;-62
2022/05/31 07:08:53;;;;;;;0.80;0.60;;;15.60;1.00;;;;;;5128361;27;20558;-62
2022/05/31 07:11:22;;;;;;;0.80;0.50;;;15.70;1.00;;;;;;5124793;27;20449;-62
2022/05/31 07:13:49;;;;;;;1.10;0.60;;;15.70;1.00;;;;;;5117637;27;20875;-61
2022/05/31 07:16:16;;;;;;;0.77;0.60;;;15.80;1.00;;;;;;5126512;27;20538;-58
2022/05/31 07:18:43;;;;;;;0.80;0.50;;;15.90;1.00;;;;;;5119447;27;20480;-64
2022/05/31 07:21:10;;;;;;;0.70;0.50;;;16.00;1.00;;;;;;5117054;27;20926;-63
2022/05/31 07:23:40;;;;;;;1.37;0.60;;;16.20;1.00;;;;;;5123097;27;20522;-64
2022/05/31 07:26:08;;;;;;;0.70;0.50;;;16.30;1.00;;;;;;5124783;27;20963;-64
2022/05/31 07:28:36;;;;;;;1.80;0.60;;;16.40;1.00;;;;;;5115272;27;20540;-65
2022/05/31 07:31:06;;;;;;;0.60;0.40;;;16.50;1.00;;;;;;5116912;27;20547;-63
2022/05/31 07:33:35;;;;;;;1.03;0.40;;;16.40;1.00;;;;;;5119610;27;20448;-62
2022/05/31 07:36:04;;;;;;;0.70;0.50;;;16.50;1.00;;;;;;5115329;28;20509;-62
2022/05/31 07:38:30;;;;;;;0.77;0.50;;;16.60;1.00;;;;;;5116694;28;20574;-63
2022/05/31 07:40:58;;;;;;;0.80;0.50;;;16.60;1.00;;;;;;5095962;28;20443;-63
2022/05/31 07:43:25;;;;;;;1.10;0.50;;;16.80;1.00;;;;;;5119298;27;20617;-63
2022/05/31 07:46:05;;;;;;;0.70;0.50;;;16.90;1.00;;;;;;5121158;27;20458;-62
2022/05/31 07:48:33;;;;;;;0.80;0.37;;;17.10;1.00;;;;;;5123676;27;20950;-62
2022/05/31 07:50:59;;;;;;;0.60;0.40;;;17.30;1.00;;;;;;5120292;27;20543;-62
2022/05/31 07:53:27;;;;;;;0.63;0.43;;;17.60;1.00;;;;;;5116462;27;20452;-62
2022/05/31 07:55:55;;;;;;;1.93;0.40;;;17.60;1.00;;;;;;5113877;28;20850;-63
2022/05/31 07:58:34;;;;;;;0.70;0.57;;;17.40;1.00;;;;;;5114963;28;20854;-64
2022/05/31 08:01:04;;;;;;;0.50;0.33;;;17.30;1.00;;;;;;5116448;28;20904;-63
2022/05/31 08:03:32;;;;;;;2.13;0.50;;;17.40;1.00;;;;;;5110969;28;20537;-63
2022/05/31 08:06:02;;;;;;;1.27;0.50;;;17.60;1.00;;;;;;5116848;28;20825;-63
2022/05/31 08:08:29;;;;;;;0.73;0.50;;;17.70;1.00;;;;;;5114847;28;20958;-64
2022/05/31 08:10:56;;;;;;;1.27;0.50;;;17.90;1.00;;;;;;5115357;28;21004;-62
2022/05/31 08:13:23;;;;;;;1.00;0.60;;;18.00;1.00;;;;;;5106648;28;20449;-63
2022/05/31 08:15:51;;;;;;;1.30;0.70;;;18.00;1.00;;;;;;5112657;27;20550;-63
2022/05/31 08:18:19;;;;;;;1.03;0.50;;;18.00;1.00;;;;;;5113763;28;20449;-64
2022/05/31 08:20:46;;;;;;;2.30;0.40;;;18.00;1.00;;;;;;5115635;27;20848;-62
2022/05/31 08:23:13;;;;;;;0.70;0.40;;;17.90;1.00;;;;;;5100568;28;20940;-63
2022/05/31 08:25:40;;;;;;;1.40;0.60;;;18.00;1.00;;;;;;5093100;28;20824;-63
2022/05/31 08:28:07;;;;;;;0.63;0.40;;;18.10;1.00;;;;;;5107866;28;20531;-64
2022/05/31 08:30:34;;;;;;;0.67;0.40;;;18.30;1.00;;;;;;5109029;28;20444;-63
2022/05/31 08:33:01;;;;;;;2.60;0.47;;;18.40;1.00;;;;;;5112876;28;20951;-64
2022/05/31 08:35:29;;;;;;;0.43;0.40;;;18.40;1.00;;;;;;5103994;28;20917;-64
2022/05/31 08:37:56;;;;;;;0.67;0.47;;;18.40;1.00;;;;;;5096482;28;20501;-63
2022/05/31 08:40:24;;;;;;;0.60;0.40;;;18.30;1.00;;;;;;5104926;28;20579;-64
2022/05/31 08:42:53;;;;;;;1.10;0.50;;;18.50;1.00;;;;;;5114245;28;20543;-64
2022/05/31 08:45:34;;;;;;;2.00;0.50;;;18.60;1.00;;;;;;5115720;28;20552;-64
2022/05/31 08:48:10;;;;;;;2.30;0.83;;;18.90;1.00;;;;;;5113566;28;20456;-63
2022/05/31 08:53:38;;;;;;;0.50;0.40;;;19.30;1.00;;;;;;5113917;28;20986;-62
2022/05/31 08:58:58;;;;;;;1.03;0.60;;;20.00;1.00;;;;;;5109088;28;20908;-61
2022/05/31 09:01:32;;;;;;;1.13;0.90;;;20.30;1.00;;;;;;5094749;28;20457;-61
2022/05/31 09:04:04;;;;;;;0.60;0.50;;;20.40;1.00;;;;;;5113723;28;20551;-61
2022/05/31 09:06:42;;;;;;;0.70;0.40;;;20.50;1.00;;;;;;5115136;28;20531;-61
2022/05/31 09:09:14;;;;;;;1.90;0.67;;;20.70;1.00;;;;;;5113879;28;20441;-61
2022/05/31 09:11:47;;;;;;;1.00;0.50;;;20.70;1.00;;;;;;5114402;28;20482;-61
2022/05/31 09:14:20;;;;;;;0.67;0.40;;;20.80;1.00;;;;;;5113791;28;20543;-60
2022/05/31 09:16:52;;;;;;;0.60;0.47;;;21.00;1.00;;;;;;5113223;28;20535;-61
2022/05/31 09:19:27;;;;;;;0.80;0.40;;;21.00;1.00;;;;;;5114036;28;20571;-60
2022/05/31 09:21:57;;;;;;;0.70;0.50;;;21.10;1.00;;;;;;5114291;28;20544;-60
2022/05/31 09:24:25;;;;;;;0.60;0.50;;;21.20;1.00;;;;;;5114048;28;20545;-61
2022/05/31 09:27:04;;;;;;;1.20;0.47;;;20.90;1.00;;;;;;5114269;28;20465;-61
2022/05/31 09:29:46;;;;;;;0.60;0.50;;;21.10;1.00;;;;;;5113575;28;20931;-61
2022/05/31 09:32:20;;;;;;;0.60;0.40;;;21.20;1.00;;;;;;5112852;28;20975;-62
2022/05/31 09:35:18;;;;;;;0.60;0.40;;;20.90;1.00;;;;;;5110890;28;20918;-62
2022/05/31 09:38:16;;;;;;;0.60;0.40;;;20.90;1.00;;;;;;5109494;28;20805;-62
2022/05/31 09:40:46;;;;;;;1.70;0.43;;;20.80;1.00;;;;;;5109966;28;20472;-61
2022/05/31 09:43:22;;;;;;;0.60;0.40;;;20.90;1.00;;;;;;5109556;28;20441;-62
2022/05/31 09:45:54;;;;;;;0.83;0.40;;;21.00;1.00;;;;;;5109982;28;20498;-62
2022/05/31 09:48:22;;;;;;;0.63;0.37;;;21.10;1.00;;;;;;5113492;27;20452;-61
2022/05/31 09:50:49;;;;;;;0.60;0.40;;;21.20;1.00;;;;;;5110646;28;20865;-61
2022/05/31 09:59:06;;;;;;;0.70;0.50;;;21.40;1.00;;;;;;5112885;28;20436;-62
2022/05/31 10:01:42;;;;;;;1.07;0.60;;;21.70;1.00;;;;;;5106690;28;20475;-61
2022/05/31 10:04:12;;;;;;;0.90;0.50;;;21.90;1.00;;;;;;5094447;28;20445;-61
2022/05/31 10:06:56;;;;;;;0.60;0.40;;;22.30;1.00;;;;;;5094625;28;20462;-61
2022/05/31 10:09:31;;;;;;;1.27;0.50;;;22.50;1.00;;;;;;5102545;28;20441;-61
2022/05/31 10:12:06;;;;;;;0.60;0.40;;;22.50;1.00;;;;;;5112430;28;20452;-61
2022/05/31 10:14:36;;;;;;;0.90;0.50;;;22.70;1.00;;;;;;5112523;28;20816;-61
2022/05/31 10:17:28;;;;;;;0.70;0.50;;;22.90;1.00;;;;;;5112659;28;20448;-61
2022/05/31 10:20:24;;;;;;;0.97;0.50;;;23.10;1.00;;;;;;5111579;28;20572;-61
2022/05/31 10:22:58;;;;;;;0.70;0.40;;;23.30;1.00;;;;;;5112391;28;20723;-61
2022/05/31 10:25:31;;;;;;;0.70;0.37;;;23.30;1.00;;;;;;5112534;28;20460;-62
2022/05/31 10:28:01;;;;;;;0.70;0.50;;;23.30;1.00;;;;;;5103159;28;20781;-60
2022/05/31 10:30:29;;;;;;;0.70;0.40;;;23.40;1.00;;;;;;5105999;28;20477;-61
2022/05/31 10:32:58;;;;;;;1.57;0.40;;;23.20;1.00;;;;;;5129164;28;20539;-62
2022/05/31 10:35:28;;;;;;;0.70;0.50;;;23.30;1.00;;;;;;5130168;28;20961;-60
2022/05/31 10:38:00;;;;;;;0.63;0.50;;;23.20;1.00;;;;;;5128288;28;20538;-62
2022/05/31 10:40:35;;;;;;;0.70;0.40;;;23.30;1.00;;;;;;5101351;28;21057;-61
2022/05/31 10:43:26;;;;;;;0.60;0.40;;;23.00;1.00;;;;;;5127390;28;20585;-62
2022/05/31 10:45:56;;;;;;;1.70;0.50;;;23.30;1.00;;;;;;5132751;28;20450;-62
2022/05/31 10:48:24;;;;;;;1.00;0.90;;;23.60;1.00;;;;;;5113943;28;20528;-61
2022/05/31 10:51:04;;;;;;;1.90;0.50;;;23.90;1.00;;;;;;5110291;28;20505;-63
2022/05/31 10:53:42;;;;;;;0.73;0.50;;;24.20;1.00;;;;;;5108915;28;21001;-61
2022/05/31 10:56:15;;;;;;;0.87;0.60;;;24.10;1.00;;;;;;5111804;28;20258;-62
2022/05/31 10:58:58;;;;;;;1.20;0.60;;;23.90;1.00;;;;;;5119645;28;20470;-61
2022/05/31 11:01:59;;;;;;;4.83;0.60;;;23.80;1.00;;;;;;5131811;28;20479;-62
2022/05/31 11:04:54;;;;;;;2.43;1.40;;;24.20;1.00;;;;;;5109585;28;21099;-62
2022/05/31 11:07:34;;;;;;;1.00;0.70;;;23.90;1.00;;;;;;5114723;28;21134;-63
2022/05/31 11:13:11;;;;;;;1.20;0.57;;;23.70;1.00;;;;;;5112215;28;20555;-61
2022/05/31 11:15:48;;;;;;;0.60;0.53;;;24.30;1.00;;;;;;5112599;28;20543;-61
2022/05/31 11:18:53;;;;;;;1.27;0.50;;;24.70;1.00;;;;;;5112861;28;20524;-60
2022/05/31 11:21:35;;;;;;;1.23;0.50;;;25.00;1.00;;;;;;5116030;28;21038;-61
2022/05/31 11:24:20;;;;;;;0.60;0.50;;;25.40;1.00;;;;;;5115467;28;20845;-61
2022/05/31 11:26:58;;;;;;;0.80;0.50;;;25.70;1.00;;;;;;5116574;28;20464;-61
2022/05/31 11:30:01;;;;;;;0.93;0.50;;;25.50;1.00;;;;;;5107298;28;20572;-60
2022/05/31 11:32:45;;;;;;;1.93;0.50;;;24.80;1.00;;;;;;5106733;28;20539;-62
2022/05/31 11:35:24;;;;;;;1.43;0.50;;;25.10;1.00;;;;;;5109375;28;20527;-61
2022/05/31 11:38:03;;;;;;;1.00;0.50;;;25.70;1.00;;;;;;5112646;28;20559;-62
2022/05/31 11:40:43;;;;;;;0.90;0.60;;;25.90;1.00;;;;;;5110195;28;20480;-61
2022/05/31 11:43:43;;;;;;;0.70;0.50;;;25.90;1.00;;;;;;5115673;28;20940;-62
2022/05/31 11:46:20;;;;;;;0.60;0.40;;;26.30;1.00;;;;;;5080911;28;20452;-63
2022/05/31 11:48:58;;;;;;;1.30;0.60;;;26.90;1.00;;;;;;5112533;28;20440;-61
2022/05/31 11:51:45;;;;;;;0.80;0.53;;;26.80;1.00;;;;;;5113580;28;20476;-63
2022/05/31 11:57:48;;;;;;;1.07;0.50;;;26.50;1.00;;;;;;5110120;28;20417;-63
2022/05/31 12:00:16;;;;;;;0.60;0.47;;;26.60;1.00;;;;;;5113067;28;21022;-64
2022/05/31 12:02:51;;;;;;;0.60;0.50;;;26.60;1.00;;;;;;5113909;28;20586;-61
2022/05/31 12:05:24;;;;;;;0.67;0.50;;;26.50;1.00;;;;;;5114434;28;20930;-61
2022/05/31 12:07:59;;;;;;;0.60;0.40;;;26.70;1.00;;;;;;5113598;28;20441;-61
2022/05/31 12:10:33;;;;;;;0.70;0.37;;;26.80;1.00;;;;;;5112348;28;20483;-62
2022/05/31 12:13:05;;;;;;;0.60;0.40;;;26.70;1.00;;;;;;5113426;28;20529;-63
2022/05/31 12:15:35;;;;;;;3.70;0.50;;;26.50;1.00;;;;;;5114720;28;20560;-62
2022/05/31 12:18:14;;;;;;;1.13;0.40;;;26.10;1.00;;;;;;5113519;28;20557;-62
2022/05/31 12:20:44;;;;;;;0.50;0.37;;;25.90;1.00;;;;;;5116587;27;20877;-62
2022/05/31 12:23:17;;;;;;;0.60;0.40;;;25.80;1.00;;;;;;5133936;27;20898;-62
2022/05/31 12:25:47;;;;;;;0.60;0.50;;;25.00;1.00;;;;;;5121371;27;20484;-62
2022/05/31 12:28:20;;;;;;;1.97;0.60;;;25.00;1.00;;;;;;5114912;28;20527;-61
2022/05/31 12:30:56;;;;;;;0.53;0.40;;;24.80;1.00;;;;;;5114044;28;20514;-61
2022/05/31 12:33:31;;;;;;;0.83;0.40;;;25.20;1.00;;;;;;5114312;28;20543;-61
2022/05/31 12:35:58;;;;;;;0.60;0.50;;;24.70;1.00;;;;;;5114506;28;20475;-61
2022/05/31 12:38:26;;;;;;;0.50;0.40;;;24.90;1.00;;;;;;5121972;27;20559;-61
2022/05/31 12:40:54;;;;;;;0.60;0.50;;;25.10;1.00;;;;;;5131404;27;20476;-61
2022/05/31 12:43:48;;;;;;;0.73;0.50;;;25.20;1.00;;;;;;5123830;27;20840;-62
2022/05/31 12:46:23;;;;;;;1.33;0.70;;;25.30;1.00;;;;;;5112642;27;20541;-61
2022/05/31 12:48:58;;;;;;;0.60;0.40;;;25.70;1.00;;;;;;5113239;28;20446;-61
2022/05/31 12:51:25;;;;;;;1.13;0.43;;;26.40;1.00;;;;;;5112601;28;20602;-61
2022/05/31 12:54:02;;;;;;;0.60;0.43;;;26.40;1.00;;;;;;5112407;28;20495;-61
2022/05/31 12:57:01;;;;;;;0.50;0.40;;;26.40;1.00;;;;;;5114073;28;20536;-61
2022/05/31 12:59:53;;;;;;;1.67;0.50;;;26.40;1.00;;;;;;5111776;28;20544;-61
2022/05/31 13:02:29;;;;;;;0.70;0.33;;;26.60;1.00;;;;;;5111823;28;20556;-61
2022/05/31 13:05:00;;;;;;;1.00;0.47;;;26.60;1.00;;;;;;5112553;28;20523;-62
2022/05/31 13:07:42;;;;;;;2.20;0.40;;;26.70;1.00;;;;;;5112939;28;20519;-62
2022/05/31 13:10:33;;;;;;;0.90;0.40;;;26.60;1.00;;;;;;5113078;28;20439;-63
2022/05/31 13:21:18;;;;;;;0.80;0.30;;;25.90;1.00;;;;;;5116012;27;20525;-58
2022/05/31 13:23:47;;;;;;;0.40;0.40;;;26.20;1.00;;;;;;5118505;27;20539;-58
2022/05/31 13:26:19;;;;;;;1.20;0.87;;;26.00;1.00;;;;;;5123043;27;20452;-59
2022/05/31 13:28:59;;;;;;;1.37;0.40;;;25.50;1.00;;;;;;5114601;27;20841;-60
2022/05/31 13:31:28;;;;;;;0.60;0.40;;;25.00;1.00;;;;;;5120049;27;20603;-60
2022/05/31 13:33:59;;;;;;;0.93;0.50;;;24.80;1.00;;;;;;5110279;28;20719;-59
2022/05/31 13:36:29;;;;;;;0.80;0.40;;;24.90;1.00;;;;;;5122920;27;20452;-60
2022/05/31 13:38:59;;;;;;;0.43;0.33;;;25.40;1.00;;;;;;5113362;27;20748;-60
2022/05/31 13:41:27;;;;;;;1.80;0.60;;;25.40;1.00;;;;;;5130355;27;20476;-60
2022/05/31 13:43:57;;;;;;;0.60;0.50;;;25.30;1.00;;;;;;5130311;27;20440;-60
2022/05/31 13:46:29;;;;;;;0.60;0.40;;;24.60;1.00;;;;;;5115348;27;20567;-60
2022/05/31 13:49:02;;;;;;;1.00;0.40;;;24.80;1.00;;;;;;5121308;27;21073;-60
2022/05/31 13:51:32;;;;;;;0.50;0.40;;;24.90;1.00;;;;;;5118705;27;20554;-59
2022/05/31 13:54:11;;;;;;;0.50;0.30;;;25.00;1.00;;;;;;5124819;27;20531;-61
2022/05/31 13:56:38;;;;;;;1.97;0.40;;;25.30;1.00;;;;;;5114316;27;20553;-61